sensor_id;sensor_type;location;lat;lon;timestamp;temperature;humidity
9790;DHT22;4934;50.852;8.098;2022-10-17T00:00:28;14.10;99.90
9790;DHT22;4934;50.852;8.098;2022-10-17T00:02:55;14.10;99.90
9790;DHT22;4934;50.852;8.098;2022-10-17T00:05:21;14.10;99.90
9790;DHT22;4934;50.852;8.098;2022-10-17T00:07:46;14.00;99.90
9790;DHT22;4934;50.852;8.098;2022-10-17T00:10:12;14.00;99.90
9790;DHT22;4934;50.852;8.098;2022-10-17T00:12:38;13.90;99.90
9790;DHT22;4934;50.852;8.098;2022-10-17T00:15:05;14.00;99.90
9790;DHT22;4934;50.852;8.098;2022-10-17T00:17:31;13.90;99.90
9790;DHT22;4934;50.852;8.098;2022-10-17T00:19:58;13.80;99.90
9790;DHT22;4934;50.852;8.098;2022-10-17T00:22:24;13.80;99.90
9790;DHT22;4934;50.852;8.098;2022-10-17T00:24:49;13.70;99.90
9790;DHT22;4934;50.852;8.098;2022-10-17T00:27:15;13.60;99.90
9790;DHT22;4934;50.852;8.098;2022-10-17T00:29:41;13.60;99.90
9790;DHT22;4934;50.852;8.098;2022-10-17T00:32:06;13.60;99.90
9790;DHT22;4934;50.852;8.098;2022-10-17T00:34:32;13.60;99.90
9790;DHT22;4934;50.852;8.098;2022-10-17T00:36:57;13.50;99.90
9790;DHT22;4934;50.852;8.098;2022-10-17T00:39:23;13.60;99.90
9790;DHT22;4934;50.852;8.098;2022-10-17T00:41:49;13.50;99.90
9790;DHT22;4934;50.852;8.098;2022-10-17T00:47:07;13.40;99.90
9790;DHT22;4934;50.852;8.098;2022-10-17T00:49:35;13.50;99.90
9790;DHT22;4934;50.852;8.098;2022-10-17T00:52:17;13.50;99.90
9790;DHT22;4934;50.852;8.098;2022-10-17T00:54:46;13.50;99.90
9790;DHT22;4934;50.852;8.098;2022-10-17T00:57:13;13.50;99.90
9790;DHT22;4934;50.852;8.098;2022-10-17T00:59:40;13.50;99.90
9790;DHT22;4934;50.852;8.098;2022-10-17T01:02:10;13.50;99.90
9790;DHT22;4934;50.852;8.098;2022-10-17T01:04:41;13.60;99.90
9790;DHT22;4934;50.852;8.098;2022-10-17T01:07:08;13.60;99.90
9790;DHT22;4934;50.852;8.098;2022-10-17T01:09:34;13.60;99.90
9790;DHT22;4934;50.852;8.098;2022-10-17T01:15:22;13.70;99.90
9790;DHT22;4934;50.852;8.098;2022-10-17T01:18:12;13.70;99.90
9790;DHT22;4934;50.852;8.098;2022-10-17T01:31:34;13.60;99.90
9790;DHT22;4934;50.852;8.098;2022-10-17T01:34:17;13.60;99.90
9790;DHT22;4934;50.852;8.098;2022-10-17T01:37:04;13.70;99.90
9790;DHT22;4934;50.852;8.098;2022-10-17T01:42:20;13.60;99.90
9790;DHT22;4934;50.852;8.098;2022-10-17T01:44:56;13.60;99.90
9790;DHT22;4934;50.852;8.098;2022-10-17T01:47:26;13.60;99.90
9790;DHT22;4934;50.852;8.098;2022-10-17T01:49:56;13.50;99.90
9790;DHT22;4934;50.852;8.098;2022-10-17T01:52:37;13.50;99.90
9790;DHT22;4934;50.852;8.098;2022-10-17T01:55:11;13.50;99.90
9790;DHT22;4934;50.852;8.098;2022-10-17T01:57:41;13.60;99.90
9790;DHT22;4934;50.852;8.098;2022-10-17T02:00:14;13.60;99.90
9790;DHT22;4934;50.852;8.098;2022-10-17T02:02:43;13.70;99.90
9790;DHT22;4934;50.852;8.098;2022-10-17T02:05:09;13.80;99.90
9790;DHT22;4934;50.852;8.098;2022-10-17T02:07:35;13.70;99.90
9790;DHT22;4934;50.852;8.098;2022-10-17T02:10:02;13.60;99.90
9790;DHT22;4934;50.852;8.098;2022-10-17T02:12:53;13.70;99.90
9790;DHT22;4934;50.852;8.098;2022-10-17T02:15:38;13.60;99.90
9790;DHT22;4934;50.852;8.098;2022-10-17T02:28:53;13.50;99.90
9790;DHT22;4934;50.852;8.098;2022-10-17T02:31:32;13.40;99.90
9790;DHT22;4934;50.852;8.098;2022-10-17T02:34:30;13.30;99.90
9790;DHT22;4934;50.852;8.098;2022-10-17T02:36:59;13.30;99.90
9790;DHT22;4934;50.852;8.098;2022-10-17T02:39:27;13.20;99.90
9790;DHT22;4934;50.852;8.098;2022-10-17T02:41:56;13.10;99.90
9790;DHT22;4934;50.852;8.098;2022-10-17T02:44:24;13.10;99.90
9790;DHT22;4934;50.852;8.098;2022-10-17T02:47:15;13.00;99.90
9790;DHT22;4934;50.852;8.098;2022-10-17T02:49:45;13.00;99.90
9790;DHT22;4934;50.852;8.098;2022-10-17T02:52:59;12.90;99.90
9790;DHT22;4934;50.852;8.098;2022-10-17T02:55:30;12.90;99.90
9790;DHT22;4934;50.852;8.098;2022-10-17T02:58:06;12.80;99.90
9790;DHT22;4934;50.852;8.098;2022-10-17T03:00:33;13.00;99.90
9790;DHT22;4934;50.852;8.098;2022-10-17T03:02:59;13.10;99.90
9790;DHT22;4934;50.852;8.098;2022-10-17T03:05:28;13.00;99.90
9790;DHT22;4934;50.852;8.098;2022-10-17T03:07:54;12.90;99.90
9790;DHT22;4934;50.852;8.098;2022-10-17T03:10:20;12.80;99.90
9790;DHT22;4934;50.852;8.098;2022-10-17T03:12:47;12.70;99.90
9790;DHT22;4934;50.852;8.098;2022-10-17T03:15:12;12.70;99.90
9790;DHT22;4934;50.852;8.098;2022-10-17T03:17:38;12.60;99.90
9790;DHT22;4934;50.852;8.098;2022-10-17T03:20:05;12.60;99.90
9790;DHT22;4934;50.852;8.098;2022-10-17T03:22:31;12.50;99.90
9790;DHT22;4934;50.852;8.098;2022-10-17T03:24:57;12.40;99.90
9790;DHT22;4934;50.852;8.098;2022-10-17T03:27:22;12.40;99.90
9790;DHT22;4934;50.852;8.098;2022-10-17T03:29:48;12.40;99.90
9790;DHT22;4934;50.852;8.098;2022-10-17T03:32:14;12.50;99.90
9790;DHT22;4934;50.852;8.098;2022-10-17T03:34:39;12.50;99.90
9790;DHT22;4934;50.852;8.098;2022-10-17T03:37:05;12.50;99.90
9790;DHT22;4934;50.852;8.098;2022-10-17T03:39:30;12.50;99.90
9790;DHT22;4934;50.852;8.098;2022-10-17T03:41:56;12.50;99.90
9790;DHT22;4934;50.852;8.098;2022-10-17T03:44:22;12.50;99.90
9790;DHT22;4934;50.852;8.098;2022-10-17T03:46:47;12.50;99.90
9790;DHT22;4934;50.852;8.098;2022-10-17T03:49:13;12.40;99.90
9790;DHT22;4934;50.852;8.098;2022-10-17T03:51:39;12.50;99.90
9790;DHT22;4934;50.852;8.098;2022-10-17T03:54:04;12.50;99.90
9790;DHT22;4934;50.852;8.098;2022-10-17T03:56:30;12.50;99.90
9790;DHT22;4934;50.852;8.098;2022-10-17T03:58:56;12.40;99.90
9790;DHT22;4934;50.852;8.098;2022-10-17T04:01:21;12.40;99.90
9790;DHT22;4934;50.852;8.098;2022-10-17T04:03:52;12.40;99.90
9790;DHT22;4934;50.852;8.098;2022-10-17T04:06:18;12.30;99.90
9790;DHT22;4934;50.852;8.098;2022-10-17T04:08:45;12.30;99.90
9790;DHT22;4934;50.852;8.098;2022-10-17T04:11:16;12.30;99.90
9790;DHT22;4934;50.852;8.098;2022-10-17T04:13:43;12.40;99.90
9790;DHT22;4934;50.852;8.098;2022-10-17T04:16:14;12.40;99.90
9790;DHT22;4934;50.852;8.098;2022-10-17T04:18:40;12.40;99.90
9790;DHT22;4934;50.852;8.098;2022-10-17T04:21:07;12.40;99.90
9790;DHT22;4934;50.852;8.098;2022-10-17T04:23:33;12.40;99.90
9790;DHT22;4934;50.852;8.098;2022-10-17T04:26:00;12.40;99.90
9790;DHT22;4934;50.852;8.098;2022-10-17T04:28:27;12.40;99.90
9790;DHT22;4934;50.852;8.098;2022-10-17T04:31:01;12.50;99.90
9790;DHT22;4934;50.852;8.098;2022-10-17T04:33:26;12.50;99.90
9790;DHT22;4934;50.852;8.098;2022-10-17T04:35:59;12.50;99.90
9790;DHT22;4934;50.852;8.098;2022-10-17T04:38:27;12.40;99.90
9790;DHT22;4934;50.852;8.098;2022-10-17T04:40:52;12.30;99.90
9790;DHT22;4934;50.852;8.098;2022-10-17T04:43:18;12.40;99.90
9790;DHT22;4934;50.852;8.098;2022-10-17T04:45:44;12.40;99.90
9790;DHT22;4934;50.852;8.098;2022-10-17T04:48:10;12.50;99.90
9790;DHT22;4934;50.852;8.098;2022-10-17T04:50:35;12.50;99.90
9790;DHT22;4934;50.852;8.098;2022-10-17T04:53:01;12.50;99.90
9790;DHT22;4934;50.852;8.098;2022-10-17T04:55:26;12.50;99.90
9790;DHT22;4934;50.852;8.098;2022-10-17T04:57:52;12.50;99.90
9790;DHT22;4934;50.852;8.098;2022-10-17T05:00:18;12.60;99.90
9790;DHT22;4934;50.852;8.098;2022-10-17T05:02:43;12.50;99.90
9790;DHT22;4934;50.852;8.098;2022-10-17T05:05:09;12.60;99.90
9790;DHT22;4934;50.852;8.098;2022-10-17T05:07:38;12.70;99.90
9790;DHT22;4934;50.852;8.098;2022-10-17T05:10:03;12.70;99.90
9790;DHT22;4934;50.852;8.098;2022-10-17T05:12:29;12.80;99.90
9790;DHT22;4934;50.852;8.098;2022-10-17T05:14:55;12.90;99.90
9790;DHT22;4934;50.852;8.098;2022-10-17T05:17:20;12.90;99.90
9790;DHT22;4934;50.852;8.098;2022-10-17T05:19:46;12.90;99.90
9790;DHT22;4934;50.852;8.098;2022-10-17T05:22:11;12.90;99.90
9790;DHT22;4934;50.852;8.098;2022-10-17T05:24:37;12.90;99.90
9790;DHT22;4934;50.852;8.098;2022-10-17T05:27:03;12.90;99.90
9790;DHT22;4934;50.852;8.098;2022-10-17T05:29:28;12.90;99.90
9790;DHT22;4934;50.852;8.098;2022-10-17T05:31:54;12.90;99.90
9790;DHT22;4934;50.852;8.098;2022-10-17T05:34:19;13.10;99.90
9790;DHT22;4934;50.852;8.098;2022-10-17T05:36:45;13.00;99.90
9790;DHT22;4934;50.852;8.098;2022-10-17T05:39:12;13.10;99.90
9790;DHT22;4934;50.852;8.098;2022-10-17T05:41:39;13.10;99.90
9790;DHT22;4934;50.852;8.098;2022-10-17T05:44:05;13.10;99.90
9790;DHT22;4934;50.852;8.098;2022-10-17T05:46:30;13.10;99.90
9790;DHT22;4934;50.852;8.098;2022-10-17T05:48:56;13.10;99.90
9790;DHT22;4934;50.852;8.098;2022-10-17T05:51:21;13.00;99.90
9790;DHT22;4934;50.852;8.098;2022-10-17T05:53:47;13.00;99.90
9790;DHT22;4934;50.852;8.098;2022-10-17T05:56:13;13.00;99.90
9790;DHT22;4934;50.852;8.098;2022-10-17T05:58:43;13.10;99.90
9790;DHT22;4934;50.852;8.098;2022-10-17T06:01:10;13.10;99.90
9790;DHT22;4934;50.852;8.098;2022-10-17T06:03:36;13.10;99.90
9790;DHT22;4934;50.852;8.098;2022-10-17T06:06:08;13.10;99.90
9790;DHT22;4934;50.852;8.098;2022-10-17T06:08:34;13.10;99.90
9790;DHT22;4934;50.852;8.098;2022-10-17T06:11:00;13.10;99.90
9790;DHT22;4934;50.852;8.098;2022-10-17T06:13:26;13.10;99.90
9790;DHT22;4934;50.852;8.098;2022-10-17T06:15:52;13.10;99.90
9790;DHT22;4934;50.852;8.098;2022-10-17T06:18:17;13.00;99.90
9790;DHT22;4934;50.852;8.098;2022-10-17T06:20:43;13.00;99.90
9790;DHT22;4934;50.852;8.098;2022-10-17T06:23:08;13.00;99.90
9790;DHT22;4934;50.852;8.098;2022-10-17T06:25:34;13.00;99.90
9790;DHT22;4934;50.852;8.098;2022-10-17T06:28:00;13.00;99.90
9790;DHT22;4934;50.852;8.098;2022-10-17T06:30:26;13.10;99.90
9790;DHT22;4934;50.852;8.098;2022-10-17T06:32:52;13.20;99.90
9790;DHT22;4934;50.852;8.098;2022-10-17T06:35:18;13.30;99.90
9790;DHT22;4934;50.852;8.098;2022-10-17T06:37:44;13.30;99.90
9790;DHT22;4934;50.852;8.098;2022-10-17T06:40:10;13.40;99.90
9790;DHT22;4934;50.852;8.098;2022-10-17T06:42:39;13.50;99.90
9790;DHT22;4934;50.852;8.098;2022-10-17T06:45:06;13.70;99.90
9790;DHT22;4934;50.852;8.098;2022-10-17T06:47:33;13.80;99.90
9790;DHT22;4934;50.852;8.098;2022-10-17T06:49:58;13.80;99.90
9790;DHT22;4934;50.852;8.098;2022-10-17T06:52:24;13.90;99.90
9790;DHT22;4934;50.852;8.098;2022-10-17T06:54:50;14.00;99.90
9790;DHT22;4934;50.852;8.098;2022-10-17T06:57:16;14.00;99.90
9790;DHT22;4934;50.852;8.098;2022-10-17T06:59:42;14.10;99.90
9790;DHT22;4934;50.852;8.098;2022-10-17T07:02:09;14.10;99.90
9790;DHT22;4934;50.852;8.098;2022-10-17T07:04:35;14.20;99.90
9790;DHT22;4934;50.852;8.098;2022-10-17T07:07:00;14.40;99.90
9790;DHT22;4934;50.852;8.098;2022-10-17T07:09:28;14.40;99.90
9790;DHT22;4934;50.852;8.098;2022-10-17T07:11:54;14.50;99.90
9790;DHT22;4934;50.852;8.098;2022-10-17T07:14:20;14.60;99.90
9790;DHT22;4934;50.852;8.098;2022-10-17T07:16:46;14.60;99.90
9790;DHT22;4934;50.852;8.098;2022-10-17T07:19:11;14.60;99.90
9790;DHT22;4934;50.852;8.098;2022-10-17T07:21:37;14.70;99.90
9790;DHT22;4934;50.852;8.098;2022-10-17T07:24:03;14.80;99.90
9790;DHT22;4934;50.852;8.098;2022-10-17T07:26:28;14.80;99.90
9790;DHT22;4934;50.852;8.098;2022-10-17T07:28:54;14.80;99.90
9790;DHT22;4934;50.852;8.098;2022-10-17T07:31:21;14.90;99.90
9790;DHT22;4934;50.852;8.098;2022-10-17T07:33:47;15.00;99.90
9790;DHT22;4934;50.852;8.098;2022-10-17T07:36:14;15.10;99.90
9790;DHT22;4934;50.852;8.098;2022-10-17T07:38:39;15.10;99.90
9790;DHT22;4934;50.852;8.098;2022-10-17T07:41:07;15.20;99.90
9790;DHT22;4934;50.852;8.098;2022-10-17T07:43:33;15.20;99.90
9790;DHT22;4934;50.852;8.098;2022-10-17T07:46:01;15.40;99.90
9790;DHT22;4934;50.852;8.098;2022-10-17T07:48:27;15.40;99.90
9790;DHT22;4934;50.852;8.098;2022-10-17T07:50:53;15.40;99.90
9790;DHT22;4934;50.852;8.098;2022-10-17T07:53:19;15.50;99.90
9790;DHT22;4934;50.852;8.098;2022-10-17T07:55:45;15.50;99.90
9790;DHT22;4934;50.852;8.098;2022-10-17T07:58:13;15.70;99.90
9790;DHT22;4934;50.852;8.098;2022-10-17T08:00:39;15.70;99.90
9790;DHT22;4934;50.852;8.098;2022-10-17T08:03:05;15.90;99.90
9790;DHT22;4934;50.852;8.098;2022-10-17T08:05:31;15.90;99.90
9790;DHT22;4934;50.852;8.098;2022-10-17T08:07:58;16.00;99.90
9790;DHT22;4934;50.852;8.098;2022-10-17T08:10:24;16.10;99.90
9790;DHT22;4934;50.852;8.098;2022-10-17T08:12:53;16.20;99.90
9790;DHT22;4934;50.852;8.098;2022-10-17T08:15:19;16.30;99.90
9790;DHT22;4934;50.852;8.098;2022-10-17T08:17:44;16.40;99.90
9790;DHT22;4934;50.852;8.098;2022-10-17T08:20:11;16.40;99.90
9790;DHT22;4934;50.852;8.098;2022-10-17T08:22:36;16.50;99.90
9790;DHT22;4934;50.852;8.098;2022-10-17T08:25:02;16.60;99.90
9790;DHT22;4934;50.852;8.098;2022-10-17T08:27:28;16.70;99.90
9790;DHT22;4934;50.852;8.098;2022-10-17T08:29:54;16.80;99.90
9790;DHT22;4934;50.852;8.098;2022-10-17T08:32:21;16.80;99.90
9790;DHT22;4934;50.852;8.098;2022-10-17T08:34:47;16.80;99.90
9790;DHT22;4934;50.852;8.098;2022-10-17T08:37:13;16.90;99.90
9790;DHT22;4934;50.852;8.098;2022-10-17T08:39:43;16.90;99.90
9790;DHT22;4934;50.852;8.098;2022-10-17T08:47:42;17.10;99.90
9790;DHT22;4934;50.852;8.098;2022-10-17T08:53:35;17.30;99.90
9790;DHT22;4934;50.852;8.098;2022-10-17T08:56:29;17.40;99.90
9790;DHT22;4934;50.852;8.098;2022-10-17T08:58:57;17.60;99.90
9790;DHT22;4934;50.852;8.098;2022-10-17T09:01:47;17.70;99.90
9790;DHT22;4934;50.852;8.098;2022-10-17T09:12:47;18.10;99.90
9790;DHT22;4934;50.852;8.098;2022-10-17T09:18:16;18.30;99.90
9790;DHT22;4934;50.852;8.098;2022-10-17T09:20:47;18.40;99.90
9790;DHT22;4934;50.852;8.098;2022-10-17T09:23:21;18.50;99.90
9790;DHT22;4934;50.852;8.098;2022-10-17T09:25:49;18.50;99.90
9790;DHT22;4934;50.852;8.098;2022-10-17T09:28:24;18.60;99.90
9790;DHT22;4934;50.852;8.098;2022-10-17T09:31:00;18.80;99.90
9790;DHT22;4934;50.852;8.098;2022-10-17T09:33:49;18.90;99.90
9790;DHT22;4934;50.852;8.098;2022-10-17T09:36:35;18.90;99.90
9790;DHT22;4934;50.852;8.098;2022-10-17T09:39:12;19.10;99.90
9790;DHT22;4934;50.852;8.098;2022-10-17T09:41:48;19.40;99.90
9790;DHT22;4934;50.852;8.098;2022-10-17T09:47:20;19.60;99.90
9790;DHT22;4934;50.852;8.098;2022-10-17T09:49:48;19.60;99.90
9790;DHT22;4934;50.852;8.098;2022-10-17T09:52:38;19.70;99.90
9790;DHT22;4934;50.852;8.098;2022-10-17T09:55:15;19.80;99.90
9790;DHT22;4934;50.852;8.098;2022-10-17T09:57:56;19.80;99.90
9790;DHT22;4934;50.852;8.098;2022-10-17T10:00:29;19.90;99.90
9790;DHT22;4934;50.852;8.098;2022-10-17T10:05:42;19.90;99.90
9790;DHT22;4934;50.852;8.098;2022-10-17T10:08:18;19.90;99.90
9790;DHT22;4934;50.852;8.098;2022-10-17T10:10:44;19.90;99.90
9790;DHT22;4934;50.852;8.098;2022-10-17T10:15:40;20.00;99.90
9790;DHT22;4934;50.852;8.098;2022-10-17T10:18:34;19.90;99.90
9790;DHT22;4934;50.852;8.098;2022-10-17T10:21:19;19.90;99.90
9790;DHT22;4934;50.852;8.098;2022-10-17T10:24:09;19.90;99.90
9790;DHT22;4934;50.852;8.098;2022-10-17T10:26:47;19.70;99.90
9790;DHT22;4934;50.852;8.098;2022-10-17T10:29:32;19.70;99.90
9790;DHT22;4934;50.852;8.098;2022-10-17T10:34:59;19.70;99.90
9790;DHT22;4934;50.852;8.098;2022-10-17T10:37:47;19.60;99.90
9790;DHT22;4934;50.852;8.098;2022-10-17T10:40:24;19.60;99.90
9790;DHT22;4934;50.852;8.098;2022-10-17T10:42:53;19.60;99.90
9790;DHT22;4934;50.852;8.098;2022-10-17T10:45:23;19.60;99.90
9790;DHT22;4934;50.852;8.098;2022-10-17T10:47:52;19.70;99.90
9790;DHT22;4934;50.852;8.098;2022-10-17T10:50:32;19.70;99.90
9790;DHT22;4934;50.852;8.098;2022-10-17T10:55:55;20.00;99.90
9790;DHT22;4934;50.852;8.098;2022-10-17T11:04:43;20.30;99.90
9790;DHT22;4934;50.852;8.098;2022-10-17T11:07:22;20.40;99.90
9790;DHT22;4934;50.852;8.098;2022-10-17T11:12:44;20.50;99.90
9790;DHT22;4934;50.852;8.098;2022-10-17T11:15:21;20.50;99.90
9790;DHT22;4934;50.852;8.098;2022-10-17T11:18:03;20.70;99.90
9790;DHT22;4934;50.852;8.098;2022-10-17T11:20:47;20.80;99.90
9790;DHT22;4934;50.852;8.098;2022-10-17T11:23:16;20.80;99.90
9790;DHT22;4934;50.852;8.098;2022-10-17T11:25:47;20.90;99.90
9790;DHT22;4934;50.852;8.098;2022-10-17T11:28:15;21.10;99.90
9790;DHT22;4934;50.852;8.098;2022-10-17T11:30:58;21.20;99.90
9790;DHT22;4934;50.852;8.098;2022-10-17T11:36:00;21.20;99.90
9790;DHT22;4934;50.852;8.098;2022-10-17T11:38:47;21.30;99.90
9790;DHT22;4934;50.852;8.098;2022-10-17T11:44:32;21.50;99.90
9790;DHT22;4934;50.852;8.098;2022-10-17T11:47:22;21.60;99.90
9790;DHT22;4934;50.852;8.098;2022-10-17T11:50:08;21.50;99.90
9790;DHT22;4934;50.852;8.098;2022-10-17T11:52:44;21.50;99.90
9790;DHT22;4934;50.852;8.098;2022-10-17T11:55:28;21.60;99.90
9790;DHT22;4934;50.852;8.098;2022-10-17T12:01:08;21.70;99.90
9790;DHT22;4934;50.852;8.098;2022-10-17T12:03:47;21.70;99.90
9790;DHT22;4934;50.852;8.098;2022-10-17T12:06:37;21.80;99.90
9790;DHT22;4934;50.852;8.098;2022-10-17T12:11:57;21.70;99.90
9790;DHT22;4934;50.852;8.098;2022-10-17T12:14:34;21.70;99.90
9790;DHT22;4934;50.852;8.098;2022-10-17T12:17:01;21.60;99.90
9790;DHT22;4934;50.852;8.098;2022-10-17T12:19:28;21.60;99.90
9790;DHT22;4934;50.852;8.098;2022-10-17T12:22:02;21.80;99.90
9790;DHT22;4934;50.852;8.098;2022-10-17T12:24:36;21.90;99.90
9790;DHT22;4934;50.852;8.098;2022-10-17T12:27:32;22.00;99.90
9790;DHT22;4934;50.852;8.098;2022-10-17T12:30:15;22.00;99.90
9790;DHT22;4934;50.852;8.098;2022-10-17T12:35:28;22.00;99.90
9790;DHT22;4934;50.852;8.098;2022-10-17T12:43:01;22.10;99.90
9790;DHT22;4934;50.852;8.098;2022-10-17T12:45:51;22.10;99.90
9790;DHT22;4934;50.852;8.098;2022-10-17T12:51:16;22.20;99.90
9790;DHT22;4934;50.852;8.098;2022-10-17T12:56:44;22.20;99.90
9790;DHT22;4934;50.852;8.098;2022-10-17T12:59:23;22.30;99.90
9790;DHT22;4934;50.852;8.098;2022-10-17T13:01:56;22.20;99.90
9790;DHT22;4934;50.852;8.098;2022-10-17T13:04:23;22.20;99.90
9790;DHT22;4934;50.852;8.098;2022-10-17T13:06:54;22.20;99.90
9790;DHT22;4934;50.852;8.098;2022-10-17T13:09:27;22.30;99.90
9790;DHT22;4934;50.852;8.098;2022-10-17T13:11:54;22.40;99.90
9790;DHT22;4934;50.852;8.098;2022-10-17T13:14:22;22.40;99.90
9790;DHT22;4934;50.852;8.098;2022-10-17T13:16:57;22.30;99.90
9790;DHT22;4934;50.852;8.098;2022-10-17T13:19:31;22.40;99.90
9790;DHT22;4934;50.852;8.098;2022-10-17T13:22:13;22.50;99.90
9790;DHT22;4934;50.852;8.098;2022-10-17T13:24:40;22.50;99.90
9790;DHT22;4934;50.852;8.098;2022-10-17T13:27:21;22.60;99.90
9790;DHT22;4934;50.852;8.098;2022-10-17T13:29:48;22.60;99.90
9790;DHT22;4934;50.852;8.098;2022-10-17T13:32:13;22.60;99.90
9790;DHT22;4934;50.852;8.098;2022-10-17T13:34:39;22.60;99.90
9790;DHT22;4934;50.852;8.098;2022-10-17T13:37:07;22.50;99.90
9790;DHT22;4934;50.852;8.098;2022-10-17T13:39:38;22.50;99.90
9790;DHT22;4934;50.852;8.098;2022-10-17T13:42:04;22.40;99.90
9790;DHT22;4934;50.852;8.098;2022-10-17T13:44:33;22.30;99.90
9790;DHT22;4934;50.852;8.098;2022-10-17T13:46:59;22.30;99.90
9790;DHT22;4934;50.852;8.098;2022-10-17T13:49:40;22.10;99.90
9790;DHT22;4934;50.852;8.098;2022-10-17T13:52:15;22.10;99.90
9790;DHT22;4934;50.852;8.098;2022-10-17T13:54:44;22.10;99.90
9790;DHT22;4934;50.852;8.098;2022-10-17T13:57:18;22.00;99.90
9790;DHT22;4934;50.852;8.098;2022-10-17T13:59:46;22.00;99.90
9790;DHT22;4934;50.852;8.098;2022-10-17T14:02:15;22.10;99.90
9790;DHT22;4934;50.852;8.098;2022-10-17T14:04:43;22.10;99.90
9790;DHT22;4934;50.852;8.098;2022-10-17T14:07:23;22.00;99.90
9790;DHT22;4934;50.852;8.098;2022-10-17T14:09:50;22.10;99.90
9790;DHT22;4934;50.852;8.098;2022-10-17T14:12:18;22.00;99.90
9790;DHT22;4934;50.852;8.098;2022-10-17T14:14:50;22.10;99.90
9790;DHT22;4934;50.852;8.098;2022-10-17T14:17:26;22.00;99.90
9790;DHT22;4934;50.852;8.098;2022-10-17T14:19:54;21.90;99.90
9790;DHT22;4934;50.852;8.098;2022-10-17T14:24:45;21.70;99.90
9790;DHT22;4934;50.852;8.098;2022-10-17T14:27:35;21.70;99.90
9790;DHT22;4934;50.852;8.098;2022-10-17T14:32:54;21.60;99.90
9790;DHT22;4934;50.852;8.098;2022-10-17T14:35:21;21.60;99.90
9790;DHT22;4934;50.852;8.098;2022-10-17T14:37:48;21.60;99.90
9790;DHT22;4934;50.852;8.098;2022-10-17T14:40:16;21.70;99.90
9790;DHT22;4934;50.852;8.098;2022-10-17T14:42:42;21.70;99.90
9790;DHT22;4934;50.852;8.098;2022-10-17T14:45:14;21.60;99.90
9790;DHT22;4934;50.852;8.098;2022-10-17T14:47:48;21.60;99.90
9790;DHT22;4934;50.852;8.098;2022-10-17T14:52:40;21.40;99.90
9790;DHT22;4934;50.852;8.098;2022-10-17T14:55:22;21.40;99.90
9790;DHT22;4934;50.852;8.098;2022-10-17T14:57:47;21.30;99.90
9790;DHT22;4934;50.852;8.098;2022-10-17T15:00:15;21.30;99.90
9790;DHT22;4934;50.852;8.098;2022-10-17T15:02:42;21.30;99.90
9790;DHT22;4934;50.852;8.098;2022-10-17T15:05:08;21.20;99.90
9790;DHT22;4934;50.852;8.098;2022-10-17T15:07:33;21.20;99.90
9790;DHT22;4934;50.852;8.098;2022-10-17T15:09:59;21.20;99.90
9790;DHT22;4934;50.852;8.098;2022-10-17T15:12:24;21.20;99.90
9790;DHT22;4934;50.852;8.098;2022-10-17T15:14:50;21.10;99.90
9790;DHT22;4934;50.852;8.098;2022-10-17T15:17:25;21.10;99.90
9790;DHT22;4934;50.852;8.098;2022-10-17T15:19:51;21.10;99.90
9790;DHT22;4934;50.852;8.098;2022-10-17T15:22:17;21.00;99.90
9790;DHT22;4934;50.852;8.098;2022-10-17T15:24:43;20.90;99.90
9790;DHT22;4934;50.852;8.098;2022-10-17T15:27:19;20.90;99.90
9790;DHT22;4934;50.852;8.098;2022-10-17T15:29:46;20.70;99.90
9790;DHT22;4934;50.852;8.098;2022-10-17T15:32:12;20.70;99.90
9790;DHT22;4934;50.852;8.098;2022-10-17T15:34:38;20.70;99.90
9790;DHT22;4934;50.852;8.098;2022-10-17T15:37:05;20.60;99.90
9790;DHT22;4934;50.852;8.098;2022-10-17T15:39:31;20.50;99.90
9790;DHT22;4934;50.852;8.098;2022-10-17T15:41:57;20.50;99.90
9790;DHT22;4934;50.852;8.098;2022-10-17T15:44:24;20.40;99.90
9790;DHT22;4934;50.852;8.098;2022-10-17T15:46:49;20.30;99.90
9790;DHT22;4934;50.852;8.098;2022-10-17T15:49:17;20.20;99.90
9790;DHT22;4934;50.852;8.098;2022-10-17T15:51:44;20.20;99.90
9790;DHT22;4934;50.852;8.098;2022-10-17T15:54:09;20.10;99.90
9790;DHT22;4934;50.852;8.098;2022-10-17T15:56:38;20.10;99.90
9790;DHT22;4934;50.852;8.098;2022-10-17T15:59:07;20.00;99.90
9790;DHT22;4934;50.852;8.098;2022-10-17T16:01:35;20.00;99.90
9790;DHT22;4934;50.852;8.098;2022-10-17T16:04:04;19.90;99.90
9790;DHT22;4934;50.852;8.098;2022-10-17T16:06:29;19.90;99.90
9790;DHT22;4934;50.852;8.098;2022-10-17T16:08:55;19.80;99.90
9790;DHT22;4934;50.852;8.098;2022-10-17T16:11:30;19.80;99.90
9790;DHT22;4934;50.852;8.098;2022-10-17T16:13:58;19.70;99.90
9790;DHT22;4934;50.852;8.098;2022-10-17T16:16:24;19.70;99.90
9790;DHT22;4934;50.852;8.098;2022-10-17T16:18:50;19.60;99.90
9790;DHT22;4934;50.852;8.098;2022-10-17T16:21:24;19.50;99.90
9790;DHT22;4934;50.852;8.098;2022-10-17T16:23:51;19.40;99.90
9790;DHT22;4934;50.852;8.098;2022-10-17T16:26:17;19.40;99.90
9790;DHT22;4934;50.852;8.098;2022-10-17T16:28:43;19.30;99.90
9790;DHT22;4934;50.852;8.098;2022-10-17T16:31:30;19.20;99.90
9790;DHT22;4934;50.852;8.098;2022-10-17T16:34:00;19.10;99.90
9790;DHT22;4934;50.852;8.098;2022-10-17T16:36:26;19.00;99.90
9790;DHT22;4934;50.852;8.098;2022-10-17T16:38:52;19.00;99.90
9790;DHT22;4934;50.852;8.098;2022-10-17T16:41:26;18.90;99.90
9790;DHT22;4934;50.852;8.098;2022-10-17T16:43:58;18.90;99.90
9790;DHT22;4934;50.852;8.098;2022-10-17T16:46:25;18.70;99.90
9790;DHT22;4934;50.852;8.098;2022-10-17T16:48:51;18.60;99.90
9790;DHT22;4934;50.852;8.098;2022-10-17T16:51:18;18.60;99.90
9790;DHT22;4934;50.852;8.098;2022-10-17T16:53:45;18.50;99.90
9790;DHT22;4934;50.852;8.098;2022-10-17T16:56:13;18.50;99.90
9790;DHT22;4934;50.852;8.098;2022-10-17T16:58:39;18.40;99.90
9790;DHT22;4934;50.852;8.098;2022-10-17T17:01:08;18.40;99.90
9790;DHT22;4934;50.852;8.098;2022-10-17T17:03:37;18.40;99.90
9790;DHT22;4934;50.852;8.098;2022-10-17T17:06:08;18.30;99.90
9790;DHT22;4934;50.852;8.098;2022-10-17T17:08:34;18.20;99.90
9790;DHT22;4934;50.852;8.098;2022-10-17T17:11:07;18.20;99.90
9790;DHT22;4934;50.852;8.098;2022-10-17T17:13:33;18.20;99.90
9790;DHT22;4934;50.852;8.098;2022-10-17T17:16:11;18.20;99.90
9790;DHT22;4934;50.852;8.098;2022-10-17T17:18:37;18.20;99.90
9790;DHT22;4934;50.852;8.098;2022-10-17T17:21:04;18.10;99.90
9790;DHT22;4934;50.852;8.098;2022-10-17T17:23:33;18.10;99.90
9790;DHT22;4934;50.852;8.098;2022-10-17T17:26:04;18.00;99.90
9790;DHT22;4934;50.852;8.098;2022-10-17T17:28:30;18.00;99.90
9790;DHT22;4934;50.852;8.098;2022-10-17T17:30:56;17.90;99.90
9790;DHT22;4934;50.852;8.098;2022-10-17T17:33:22;17.90;99.90
9790;DHT22;4934;50.852;8.098;2022-10-17T17:36:09;17.80;99.90
9790;DHT22;4934;50.852;8.098;2022-10-17T17:38:35;17.70;99.90
9790;DHT22;4934;50.852;8.098;2022-10-17T17:41:02;17.60;99.90
9790;DHT22;4934;50.852;8.098;2022-10-17T17:43:29;17.60;99.90
9790;DHT22;4934;50.852;8.098;2022-10-17T17:45:54;17.60;99.90
9790;DHT22;4934;50.852;8.098;2022-10-17T17:48:20;17.50;99.90
9790;DHT22;4934;50.852;8.098;2022-10-17T17:50:46;17.50;99.90
9790;DHT22;4934;50.852;8.098;2022-10-17T17:53:13;17.50;99.90
9790;DHT22;4934;50.852;8.098;2022-10-17T17:55:39;17.40;99.90
9790;DHT22;4934;50.852;8.098;2022-10-17T17:58:05;17.30;99.90
9790;DHT22;4934;50.852;8.098;2022-10-17T18:00:33;17.40;99.90
9790;DHT22;4934;50.852;8.098;2022-10-17T18:02:59;17.30;99.90
9790;DHT22;4934;50.852;8.098;2022-10-17T18:05:26;17.20;99.90